Time;durP1;ratioP1;P1;durP2;ratioP2;P2;SDS_P1;SDS_P2;PMS_P1;PMS_P2;Temp;Humidity;BMP_temperature;BMP_pressure;BME280_temperature;BME280_humidity;BME280_pressure;Samples;Min_cycle;Max_cycle;Signal;HPM_P1;HPM_P2
2022/08/09 00:03:33;;;;;;;6.15;5.32;;;;;;;;;;10113894;28;20035;-65
2022/08/09 00:08:50;;;;;;;5.15;4.75;;;;;;;;;;10100553;28;20122;-65
2022/08/09 00:13:47;;;;;;;5.22;4.82;;;;;;;;;;10108803;28;20066;-65
2022/08/09 00:18:44;;;;;;;5.50;5.00;;;;;;;;;;10109054;28;20445;-66
2022/08/09 00:23:40;;;;;;;5.85;5.18;;;;;;;;;;10112964;28;20043;-65
2022/08/09 00:28:54;;;;;;;7.40;5.35;;;;;;;;;;10109484;28;20039;-66
2022/08/09 00:33:53;;;;;;;6.40;4.85;;;;;;;;;;10122444;28;20038;-66
2022/08/09 00:38:50;;;;;;;5.72;4.82;;;;;;;;;;10111433;28;20464;-65
2022/08/09 00:43:48;;;;;;;5.20;4.57;;;;;;;;;;10085085;28;20043;-65
2022/08/09 00:49:05;;;;;;;6.10;4.22;;;;;;;;;;10109274;28;20069;-65
2022/08/09 00:54:03;;;;;;;5.20;4.53;;;;;;;;;;10096873;28;20050;-66
2022/08/09 00:58:59;;;;;;;4.68;4.28;;;;;;;;;;10099765;28;20074;-65
2022/08/09 01:03:59;;;;;;;4.68;4.20;;;;;;;;;;10103400;28;20068;-65
2022/08/09 01:09:21;;;;;;;5.88;4.60;;;;;;;;;;10107256;28;20081;-66
2022/08/09 01:14:21;;;;;;;6.90;5.05;;;;;;;;;;10098623;28;20054;-65
2022/08/09 01:19:27;;;;;;;5.07;4.68;;;;;;;;;;10104837;28;20520;-65
2022/08/09 01:24:59;;;;;;;4.78;4.30;;;;;;;;;;10112195;28;20034;-65
2022/08/09 01:29:57;;;;;;;4.53;4.13;;;;;;;;;;10106017;28;20092;-65
2022/08/09 01:34:54;;;;;;;4.60;4.20;;;;;;;;;;10100609;28;20126;-66
2022/08/09 01:39:52;;;;;;;5.80;4.97;;;;;;;;;;10109337;28;20046;-67
2022/08/09 01:44:49;;;;;;;4.88;4.43;;;;;;;;;;10109607;28;20763;-67
2022/08/09 01:49:46;;;;;;;5.68;4.93;;;;;;;;;;10106412;28;20042;-66
2022/08/09 01:54:49;;;;;;;5.53;4.75;;;;;;;;;;10103082;28;20514;-66
2022/08/09 01:59:47;;;;;;;6.60;4.90;;;;;;;;;;10106369;28;20047;-66
2022/08/09 02:04:48;;;;;;;5.50;5.00;;;;;;;;;;10070827;28;20178;-66
2022/08/09 02:09:56;;;;;;;4.88;4.30;;;;;;;;;;10104202;28;20046;-66
2022/08/09 02:14:57;;;;;;;5.07;4.68;;;;;;;;;;10102465;28;20770;-66
2022/08/09 02:19:54;;;;;;;6.35;4.82;;;;;;;;;;10105967;28;20146;-66
2022/08/09 02:24:52;;;;;;;5.05;4.50;;;;;;;;;;10118872;28;20101;-66
2022/08/09 02:29:50;;;;;;;4.90;4.40;;;;;;;;;;10098820;28;20054;-66
2022/08/09 02:34:49;;;;;;;4.80;4.30;;;;;;;;;;10107745;28;20138;-66
2022/08/09 02:39:49;;;;;;;4.78;3.97;;;;;;;;;;10089366;28;20733;-66
2022/08/09 02:45:02;;;;;;;6.20;4.97;;;;;;;;;;10101961;28;20051;-67
2022/08/09 02:50:02;;;;;;;6.38;5.22;;;;;;;;;;10102096;28;20051;-66
2022/08/09 02:54:59;;;;;;;5.63;4.30;;;;;;;;;;10101628;28;20055;-66
2022/08/09 03:00:10;;;;;;;5.20;4.65;;;;;;;;;;10066252;28;20086;-67
2022/08/09 03:05:21;;;;;;;10.40;5.57;;;;;;;;;;10105730;28;21658;-67
2022/08/09 03:10:18;;;;;;;5.45;4.85;;;;;;;;;;10109845;28;20074;-66
2022/08/09 03:15:15;;;;;;;5.90;4.80;;;;;;;;;;10109703;28;20055;-67
2022/08/09 03:20:11;;;;;;;5.82;4.75;;;;;;;;;;10091647;28;20061;-67
2022/08/09 03:25:08;;;;;;;5.47;4.97;;;;;;;;;;10095318;28;20118;-67
2022/08/09 03:30:25;;;;;;;7.40;6.00;;;;;;;;;;10093249;28;20043;-66
2022/08/09 03:35:29;;;;;;;6.13;5.53;;;;;;;;;;10098408;28;20050;-67
2022/08/09 03:40:45;;;;;;;6.70;5.03;;;;;;;;;;10090259;28;20130;-67
2022/08/09 03:45:43;;;;;;;8.10;5.20;;;;;;;;;;10086082;28;20443;-67
2022/08/09 03:51:01;;;;;;;8.00;4.70;;;;;;;;;;10095753;28;20053;-67
2022/08/09 03:55:57;;;;;;;6.63;4.70;;;;;;;;;;10090448;28;20101;-67
2022/08/09 04:00:54;;;;;;;7.00;5.03;;;;;;;;;;10094465;28;20469;-67
2022/08/09 04:05:50;;;;;;;8.20;5.18;;;;;;;;;;10099132;28;20613;-66
2022/08/09 04:10:46;;;;;;;5.93;5.20;;;;;;;;;;10096824;28;20066;-67
2022/08/09 04:15:45;;;;;;;8.15;5.43;;;;;;;;;;10092486;28;20058;-66
2022/08/09 04:21:01;;;;;;;6.65;5.72;;;;;;;;;;10094241;28;20067;-65
2022/08/09 04:25:59;;;;;;;7.70;5.65;;;;;;;;;;10087503;28;20035;-66
2022/08/09 04:30:55;;;;;;;8.57;5.30;;;;;;;;;;10085912;28;20133;-65
2022/08/09 04:35:52;;;;;;;7.43;5.50;;;;;;;;;;10102039;28;20549;-66
2022/08/09 04:40:50;;;;;;;9.35;5.65;;;;;;;;;;10092224;28;20047;-66
2022/08/09 04:45:52;;;;;;;5.90;5.18;;;;;;;;;;10110513;28;20055;-66
2022/08/09 04:50:49;;;;;;;8.23;6.20;;;;;;;;;;10092799;28;20082;-66
2022/08/09 04:55:46;;;;;;;8.63;6.22;;;;;;;;;;10086905;28;20155;-66
2022/08/09 05:00:54;;;;;;;7.35;5.90;;;;;;;;;;10064643;28;20058;-66
2022/08/09 05:05:52;;;;;;;7.57;5.78;;;;;;;;;;10071930;28;20657;-66
2022/08/09 05:11:02;;;;;;;10.23;6.90;;;;;;;;;;10072780;28;20055;-65
2022/08/09 05:16:02;;;;;;;9.38;6.18;;;;;;;;;;10082216;28;20063;-65
2022/08/09 05:21:00;;;;;;;7.82;6.25;;;;;;;;;;10078439;28;20055;-65
2022/08/09 05:25:56;;;;;;;7.05;6.30;;;;;;;;;;10079607;28;20448;-65
2022/08/09 05:30:54;;;;;;;10.52;6.03;;;;;;;;;;10088347;28;20398;-65
2022/08/09 05:35:51;;;;;;;8.77;6.88;;;;;;;;;;10095133;28;20579;-65
2022/08/09 05:40:47;;;;;;;7.28;6.57;;;;;;;;;;10103668;28;20086;-65
2022/08/09 05:45:46;;;;;;;7.18;6.30;;;;;;;;;;10094151;28;20408;-65
2022/08/09 05:50:52;;;;;;;8.43;6.43;;;;;;;;;;10075738;28;20159;-65
2022/08/09 05:56:08;;;;;;;9.63;6.70;;;;;;;;;;10080134;28;20468;-66
2022/08/09 06:01:11;;;;;;;;;;;;;;;;;;10090242;28;20051;-65
2022/08/09 06:06:11;;;;;;;7.40;6.40;;;;;;;;;;10084505;28;20669;-64
2022/08/09 06:11:08;;;;;;;8.25;6.25;;;;;;;;;;10088217;28;20719;-65
2022/08/09 06:16:13;;;;;;;6.80;5.35;;;;;;;;;;10088462;28;20575;-65
2022/08/09 06:21:11;;;;;;;6.10;5.50;;;;;;;;;;10090194;28;20438;-65
2022/08/09 06:26:11;;;;;;;7.85;5.90;;;;;;;;;;10085380;28;20067;-66
2022/08/09 06:31:08;;;;;;;7.13;5.70;;;;;;;;;;10093805;28;20101;-65
2022/08/09 06:36:04;;;;;;;6.68;6.03;;;;;;;;;;10100144;28;20517;-66
2022/08/09 06:41:02;;;;;;;6.47;5.68;;;;;;;;;;10098332;28;20051;-66
2022/08/09 06:45:59;;;;;;;5.32;4.60;;;;;;;;;;10094636;28;20082;-67
2022/08/09 06:51:05;;;;;;;6.38;5.00;;;;;;;;;;10109333;28;20109;-67
2022/08/09 06:56:03;;;;;;;6.55;4.82;;;;;;;;;;10103245;28;20419;-67
2022/08/09 07:00:59;;;;;;;5.65;5.00;;;;;;;;;;10112125;28;20174;-67
2022/08/09 07:05:57;;;;;;;6.45;4.60;;;;;;;;;;10096508;28;20043;-68
2022/08/09 07:11:03;;;;;;;5.35;4.85;;;;;;;;;;10089674;28;20564;-67
2022/08/09 07:16:02;;;;;;;10.13;6.63;;;;;;;;;;10071905;28;20059;-68
2022/08/09 07:21:18;;;;;;;5.60;5.00;;;;;;;;;;10064562;28;20051;-67
2022/08/09 07:26:15;;;;;;;5.75;5.25;;;;;;;;;;10059394;28;20051;-67
2022/08/09 07:31:11;;;;;;;5.82;5.00;;;;;;;;;;10064544;28;20134;-67
2022/08/09 07:36:10;;;;;;;8.32;5.40;;;;;;;;;;10056943;28;20103;-68
2022/08/09 07:41:07;;;;;;;6.75;5.65;;;;;;;;;;10056284;28;20078;-67
2022/08/09 07:46:10;;;;;;;6.63;5.90;;;;;;;;;;10056342;28;20117;-68
2022/08/09 07:51:12;;;;;;;8.02;5.82;;;;;;;;;;10085684;28;20512;-68
2022/08/09 07:56:28;;;;;;;7.82;5.47;;;;;;;;;;10090853;28;20054;-68
2022/08/09 08:01:26;;;;;;;7.47;6.30;;;;;;;;;;10091357;28;20137;-68
2022/08/09 08:06:29;;;;;;;6.03;5.03;;;;;;;;;;10101540;28;20050;-68
2022/08/09 08:11:27;;;;;;;7.00;5.93;;;;;;;;;;10106188;28;20643;-68
2022/08/09 08:16:44;;;;;;;6.47;5.82;;;;;;;;;;10094713;28;20043;-68
2022/08/09 08:21:56;;;;;;;6.97;5.97;;;;;;;;;;10098140;28;20527;-68
2022/08/09 08:26:54;;;;;;;6.22;5.63;;;;;;;;;;10096895;28;20036;-68
2022/08/09 08:31:52;;;;;;;6.18;5.55;;;;;;;;;;10096343;28;20782;-68
2022/08/09 08:36:59;;;;;;;6.30;5.70;;;;;;;;;;10101515;28;20130;-68
2022/08/09 08:41:57;;;;;;;7.15;6.45;;;;;;;;;;10105460;28;20090;-68
2022/08/09 08:46:54;;;;;;;7.32;6.50;;;;;;;;;;10100031;28;20130;-68
2022/08/09 08:52:07;;;;;;;7.03;6.53;;;;;;;;;;10082972;28;20406;-68
2022/08/09 08:57:07;;;;;;;7.60;6.90;;;;;;;;;;10083178;28;20094;-68
2022/08/09 09:02:09;;;;;;;8.05;7.20;;;;;;;;;;10074428;28;20074;-68
2022/08/09 09:07:26;;;;;;;8.10;7.30;;;;;;;;;;10060267;28;20114;-68
2022/08/09 09:12:25;;;;;;;7.53;6.93;;;;;;;;;;10086002;28;20043;-68
2022/08/09 09:17:24;;;;;;;8.83;8.07;;;;;;;;;;10096414;28;20050;-68
2022/08/09 09:22:57;;;;;;;8.32;7.65;;;;;;;;;;10095009;28;20039;-68
2022/08/09 09:27:57;;;;;;;9.25;7.93;;;;;;;;;;10087805;28;20134;-68
2022/08/09 09:33:10;;;;;;;13.10;8.93;;;;;;;;;;10090170;28;20046;-68
2022/08/09 09:38:13;;;;;;;8.50;7.80;;;;;;;;;;10085186;28;20183;-68
2022/08/09 09:43:30;;;;;;;9.20;8.35;;;;;;;;;;10095054;28;20426;-68
2022/08/09 09:48:56;;;;;;;8.30;7.70;;;;;;;;;;10081599;28;20151;-68
2022/08/09 09:54:02;;;;;;;10.23;9.35;;;;;;;;;;10093811;28;20050;-68
2022/08/09 09:59:14;;;;;;;10.35;9.65;;;;;;;;;;10096423;28;20138;-68
2022/08/09 10:04:12;;;;;;;9.85;9.15;;;;;;;;;;10102288;28;20043;-68
2022/08/09 10:09:17;;;;;;;10.40;9.60;;;;;;;;;;10105216;28;20524;-68
2022/08/09 10:14:21;;;;;;;10.33;9.60;;;;;;;;;;10094928;28;20086;-72
2022/08/09 10:19:35;;;;;;;10.82;10.00;;;;;;;;;;10090762;28;20051;-68
2022/08/09 10:24:31;;;;;;;10.68;9.85;;;;;;;;;;10097689;28;20554;-69
2022/08/09 10:29:32;;;;;;;10.65;9.75;;;;;;;;;;10079858;28;20047;-69
2022/08/09 10:34:48;;;;;;;11.02;9.98;;;;;;;;;;10079432;28;20047;-68
2022/08/09 10:39:46;;;;;;;10.70;9.90;;;;;;;;;;10081258;28;20071;-69
2022/08/09 10:44:47;;;;;;;10.40;9.70;;;;;;;;;;10075315;28;20484;-69
2022/08/09 10:49:44;;;;;;;10.60;9.65;;;;;;;;;;10075599;28;20098;-68
2022/08/09 10:54:52;;;;;;;10.82;10.05;;;;;;;;;;10087398;28;20065;-69
2022/08/09 10:59:48;;;;;;;10.40;9.70;;;;;;;;;;10082672;28;20054;-68
2022/08/09 11:05:13;;;;;;;10.73;10.02;;;;;;;;;;10088765;28;20062;-68
2022/08/09 11:10:40;;;;;;;10.38;9.60;;;;;;;;;;10081610;28;20050;-68
2022/08/09 11:15:50;;;;;;;10.90;10.05;;;;;;;;;;10084406;28;20125;-68
2022/08/09 11:21:02;;;;;;;11.00;10.00;;;;;;;;;;10071290;28;20054;-68
2022/08/09 11:26:00;;;;;;;10.15;9.20;;;;;;;;;;10085815;28;20043;-68
2022/08/09 11:31:00;;;;;;;10.07;9.38;;;;;;;;;;10094820;28;20058;-68
2022/08/09 11:35:57;;;;;;;9.90;8.95;;;;;;;;;;10095070;28;20055;-68
2022/08/09 11:40:54;;;;;;;9.90;8.98;;;;;;;;;;10092456;28;20078;-68
2022/08/09 11:45:53;;;;;;;8.82;8.20;;;;;;;;;;10093011;28;20192;-68
2022/08/09 11:50:52;;;;;;;;;;;;;;;;;;10092517;28;20428;-69
2022/08/09 11:56:15;;;;;;;8.88;8.20;;;;;;;;;;10093308;28;19933;-68
2022/08/09 12:01:16;;;;;;;8.80;8.00;;;;;;;;;;10092880;28;20412;-68
2022/08/09 12:06:34;;;;;;;9.63;8.93;;;;;;;;;;10097304;28;20061;-68
2022/08/09 12:11:30;;;;;;;8.90;8.23;;;;;;;;;;10094764;28;20051;-69
2022/08/09 12:16:47;;;;;;;8.77;8.18;;;;;;;;;;10107186;28;20042;-68
2022/08/09 12:21:50;;;;;;;8.48;7.90;;;;;;;;;;10094775;28;20047;-69
2022/08/09 12:26:51;;;;;;;9.32;8.52;;;;;;;;;;10061362;28;20047;-69
2022/08/09 12:32:09;;;;;;;8.32;7.63;;;;;;;;;;10085444;28;20057;-69
2022/08/09 12:37:06;;;;;;;9.05;8.45;;;;;;;;;;10101058;28;20637;-69
2022/08/09 12:42:19;;;;;;;9.00;8.25;;;;;;;;;;10097048;28;20424;-69
2022/08/09 12:47:21;;;;;;;8.88;8.27;;;;;;;;;;10097247;28;20095;-71
2022/08/09 12:52:18;;;;;;;8.45;7.85;;;;;;;;;;10090086;28;20129;-70
2022/08/09 12:57:45;;;;;;;9.60;8.80;;;;;;;;;;10093437;28;20035;-69
2022/08/09 13:02:53;;;;;;;9.32;8.73;;;;;;;;;;10083444;28;20501;-69
2022/08/09 13:08:09;;;;;;;8.73;8.13;;;;;;;;;;10090282;28;20095;-69
2022/08/09 13:13:06;;;;;;;8.32;7.72;;;;;;;;;;10087933;28;22758;-69
2022/08/09 13:18:06;;;;;;;9.73;8.93;;;;;;;;;;10079610;28;20090;-71
2022/08/09 13:23:12;;;;;;;9.18;8.55;;;;;;;;;;10094142;28;20047;-69
2022/08/09 13:28:28;;;;;;;8.43;7.80;;;;;;;;;;10097207;28;20039;-69
2022/08/09 13:33:34;;;;;;;8.93;8.13;;;;;;;;;;10092417;28;20047;-69
2022/08/09 13:38:48;;;;;;;8.85;8.25;;;;;;;;;;10088774;28;20097;-71
2022/08/09 13:43:55;;;;;;;9.07;8.43;;;;;;;;;;10100537;28;20052;-69
2022/08/09 13:48:51;;;;;;;8.80;8.20;;;;;;;;;;10096491;28;20078;-72
2022/08/09 13:53:47;;;;;;;8.90;8.20;;;;;;;;;;10082073;28;20514;-69
2022/08/09 13:58:44;;;;;;;8.32;7.65;;;;;;;;;;10075444;28;20039;-70
2022/08/09 14:03:40;;;;;;;9.25;8.52;;;;;;;;;;10089815;28;20046;-71
2022/08/09 14:08:57;;;;;;;8.48;7.88;;;;;;;;;;10076745;28;20054;-71
2022/08/09 14:13:53;;;;;;;8.95;8.23;;;;;;;;;;10074324;28;20063;-71
2022/08/09 14:19:09;;;;;;;8.60;8.00;;;;;;;;;;10096497;28;20084;-71
2022/08/09 14:24:06;;;;;;;8.57;7.97;;;;;;;;;;10088331;28;20120;-71
2022/08/09 14:29:16;;;;;;;8.88;8.27;;;;;;;;;;10088625;28;20444;-71
2022/08/09 14:34:32;;;;;;;8.60;8.00;;;;;;;;;;10086196;28;20157;-71
2022/08/09 14:39:28;;;;;;;8.43;7.82;;;;;;;;;;10080388;28;20051;-72
2022/08/09 14:44:42;;;;;;;8.85;8.15;;;;;;;;;;10087030;28;20074;-72
2022/08/09 14:49:44;;;;;;;8.60;7.65;;;;;;;;;;10079159;28;20154;-72
2022/08/09 14:54:57;;;;;;;7.78;7.28;;;;;;;;;;10073066;28;20157;-71
2022/08/09 14:59:54;;;;;;;8.77;8.18;;;;;;;;;;10080164;28;20513;-72
2022/08/09 15:04:50;;;;;;;8.13;7.53;;;;;;;;;;10089940;28;20043;-72
2022/08/09 15:09:47;;;;;;;8.50;7.90;;;;;;;;;;10074902;28;20474;-71
2022/08/09 15:15:03;;;;;;;8.57;7.88;;;;;;;;;;10082573;28;20113;-72
2022/08/09 15:20:04;;;;;;;7.90;7.30;;;;;;;;;;10089719;28;20057;-72
2022/08/09 15:25:07;;;;;;;8.57;7.70;;;;;;;;;;10094057;28;20046;-71
2022/08/09 15:30:04;;;;;;;8.68;7.93;;;;;;;;;;10098114;28;20549;-72
2022/08/09 15:35:23;;;;;;;9.65;8.75;;;;;;;;;;10094833;28;20456;-72
2022/08/09 15:40:42;;;;;;;8.30;7.70;;;;;;;;;;10087534;28;20043;-71
2022/08/09 15:45:40;;;;;;;9.80;8.85;;;;;;;;;;10095903;28;20046;-70
2022/08/09 15:50:57;;;;;;;9.93;9.15;;;;;;;;;;10100678;28;20129;-70
2022/08/09 15:55:54;;;;;;;9.98;7.70;;;;;;;;;;10105309;28;20082;-69
2022/08/09 16:01:10;;;;;;;8.10;7.50;;;;;;;;;;10107795;28;20046;-70
2022/08/09 16:06:07;;;;;;;8.23;7.63;;;;;;;;;;10101948;28;20568;-70
2022/08/09 16:11:23;;;;;;;8.50;7.85;;;;;;;;;;10086996;28;20065;-70
2022/08/09 16:16:22;;;;;;;8.38;7.80;;;;;;;;;;10097075;28;20131;-70
2022/08/09 16:21:23;;;;;;;;;;;;;;;;;;10089354;28;20062;-70
2022/08/09 16:26:21;;;;;;;8.73;7.93;;;;;;;;;;10090460;28;19929;-71
2022/08/09 16:31:29;;;;;;;8.27;7.68;;;;;;;;;;10086547;28;20382;-71
2022/08/09 16:36:45;;;;;;;8.60;7.82;;;;;;;;;;10091684;28;20051;-70
2022/08/09 16:41:42;;;;;;;8.60;7.80;;;;;;;;;;10089406;28;20046;-71
2022/08/09 16:46:58;;;;;;;10.02;7.55;;;;;;;;;;10083037;28;20054;-70
2022/08/09 16:52:15;;;;;;;8.13;7.43;;;;;;;;;;10090522;28;20055;-71
2022/08/09 16:57:11;;;;;;;8.85;8.02;;;;;;;;;;10083640;28;20105;-71
2022/08/09 17:02:12;;;;;;;8.25;7.50;;;;;;;;;;10076080;28;20415;-71
2022/08/09 17:07:12;;;;;;;8.82;8.13;;;;;;;;;;10082147;28;20051;-70
2022/08/09 17:12:29;;;;;;;8.43;7.72;;;;;;;;;;10088023;28;20154;-70
2022/08/09 17:17:26;;;;;;;7.50;6.90;;;;;;;;;;10082454;28;20046;-70
2022/08/09 17:22:25;;;;;;;9.82;7.00;;;;;;;;;;10093649;28;20051;-70
2022/08/09 17:27:32;;;;;;;7.38;6.57;;;;;;;;;;10084441;28;20062;-71
2022/08/09 17:32:28;;;;;;;7.20;6.50;;;;;;;;;;10081537;28;20489;-70
2022/08/09 17:37:34;;;;;;;7.45;6.65;;;;;;;;;;10086020;28;20062;-71
2022/08/09 17:42:54;;;;;;;7.80;7.10;;;;;;;;;;10068961;28;20048;-70
2022/08/09 17:48:06;;;;;;;10.50;6.93;;;;;;;;;;10061826;28;20074;-70
2022/08/09 17:53:04;;;;;;;7.50;6.75;;;;;;;;;;10075457;28;20057;-71
2022/08/09 17:58:17;;;;;;;7.38;6.65;;;;;;;;;;10086107;28;20043;-71
2022/08/09 18:03:14;;;;;;;7.95;6.22;;;;;;;;;;10079584;28;20074;-70
2022/08/09 18:08:13;;;;;;;7.40;6.45;;;;;;;;;;10086639;28;20744;-70
2022/08/09 18:13:11;;;;;;;7.63;6.93;;;;;;;;;;10089675;28;20316;-71
2022/08/09 18:18:27;;;;;;;6.85;6.35;;;;;;;;;;10083446;28;20126;-71
2022/08/09 18:23:28;;;;;;;6.60;6.00;;;;;;;;;;10090576;28;20542;-71
2022/08/09 18:28:44;;;;;;;6.55;5.95;;;;;;;;;;10077555;28;20408;-71
2022/08/09 18:34:01;;;;;;;6.07;5.55;;;;;;;;;;10083121;28;20432;-70
2022/08/09 18:38:57;;;;;;;6.63;5.90;;;;;;;;;;10091359;28;20137;-70
2022/08/09 18:43:58;;;;;;;7.47;5.82;;;;;;;;;;10082638;28;20480;-71
2022/08/09 18:48:58;;;;;;;6.90;6.40;;;;;;;;;;10089183;28;20220;-70
2022/08/09 18:53:57;;;;;;;5.88;5.47;;;;;;;;;;10097284;28;20416;-70
2022/08/09 18:59:01;;;;;;;6.40;5.90;;;;;;;;;;10087549;28;20583;-70
2022/08/09 19:04:01;;;;;;;6.93;6.22;;;;;;;;;;10088829;28;20502;-71
2022/08/09 19:09:04;;;;;;;7.75;6.65;;;;;;;;;;10086097;28;20763;-70
2022/08/09 19:14:02;;;;;;;13.05;6.97;;;;;;;;;;10092917;28;20059;-70
2022/08/09 19:19:01;;;;;;;6.63;5.97;;;;;;;;;;10100023;28;20058;-70
2022/08/09 19:24:17;;;;;;;6.90;6.20;;;;;;;;;;10092796;28;20133;-70
2022/08/09 19:29:33;;;;;;;7.65;6.22;;;;;;;;;;10089743;28;20051;-70
2022/08/09 19:34:50;;;;;;;7.38;6.30;;;;;;;;;;10093197;28;20046;-70
2022/08/09 19:39:49;;;;;;;6.80;6.20;;;;;;;;;;10090229;28;20753;-70
2022/08/09 19:45:00;;;;;;;6.80;6.18;;;;;;;;;;10087783;28;20118;-70
2022/08/09 19:49:57;;;;;;;6.47;5.88;;;;;;;;;;10088169;28;20098;-71
2022/08/09 19:55:13;;;;;;;6.47;5.88;;;;;;;;;;10091910;28;20067;-70
2022/08/09 20:00:11;;;;;;;6.50;5.88;;;;;;;;;;10099750;28;20058;-70
2022/08/09 20:05:09;;;;;;;6.72;6.13;;;;;;;;;;10101291;28;20412;-70
2022/08/09 20:10:11;;;;;;;6.88;6.28;;;;;;;;;;10081855;28;20137;-69
2022/08/09 20:15:17;;;;;;;5.93;5.43;;;;;;;;;;10093818;28;20051;-70
2022/08/09 20:20:34;;;;;;;5.75;5.25;;;;;;;;;;10087810;28;20043;-70
2022/08/09 20:25:33;;;;;;;8.77;5.47;;;;;;;;;;10094411;28;20070;-69
2022/08/09 20:30:47;;;;;;;10.90;5.32;;;;;;;;;;10098674;28;20053;-69
2022/08/09 20:35:44;;;;;;;6.10;5.50;;;;;;;;;;10087935;28;20059;-69
2022/08/09 20:40:47;;;;;;;7.15;5.28;;;;;;;;;;10081619;28;20492;-70
2022/08/09 20:45:44;;;;;;;5.82;4.60;;;;;;;;;;10089188;28;20106;-70
2022/08/09 20:50:58;;;;;;;5.72;5.05;;;;;;;;;;10090517;28;20043;-69
2022/08/09 20:55:54;;;;;;;5.60;5.10;;;;;;;;;;10101955;28;20118;-69
2022/08/09 21:00:58;;;;;;;5.78;4.88;;;;;;;;;;10089173;28;20101;-69
2022/08/09 21:06:14;;;;;;;7.28;4.97;;;;;;;;;;10095201;28;20050;-70
2022/08/09 21:11:13;;;;;;;6.32;5.28;;;;;;;;;;10101032;28;20504;-70
2022/08/09 21:16:29;;;;;;;5.63;4.88;;;;;;;;;;10104481;28;20046;-70
2022/08/09 21:21:26;;;;;;;5.53;5.03;;;;;;;;;;10084519;28;20520;-69
2022/08/09 21:26:42;;;;;;;5.60;5.10;;;;;;;;;;10099946;28;20047;-69
2022/08/09 21:31:40;;;;;;;5.82;4.85;;;;;;;;;;10082928;28;20074;-70
2022/08/09 21:36:45;;;;;;;5.28;4.78;;;;;;;;;;10090487;28;20219;-70
2022/08/09 21:41:51;;;;;;;5.20;4.40;;;;;;;;;;10118811;28;20097;-69
2022/08/09 21:47:03;;;;;;;8.35;5.10;;;;;;;;;;10099333;28;20062;-69
2022/08/09 21:51:59;;;;;;;5.13;4.63;;;;;;;;;;10092130;28;20051;-69
2022/08/09 21:56:56;;;;;;;5.22;4.72;;;;;;;;;;10096727;28;20138;-70
2022/08/09 22:01:52;;;;;;;4.70;4.30;;;;;;;;;;10092403;28;20076;-70
2022/08/09 22:06:57;;;;;;;6.28;4.75;;;;;;;;;;10086442;28;20074;-69
2022/08/09 22:11:58;;;;;;;4.50;4.10;;;;;;;;;;10092110;28;20043;-70
2022/08/09 22:17:13;;;;;;;5.15;4.50;;;;;;;;;;10087594;28;20130;-70
2022/08/09 22:22:12;;;;;;;5.97;4.93;;;;;;;;;;10079669;28;20532;-69
2022/08/09 22:27:11;;;;;;;5.93;4.18;;;;;;;;;;10102628;28;20051;-69
2022/08/09 22:32:08;;;;;;;5.07;4.57;;;;;;;;;;10094995;28;20113;-69
2022/08/09 22:37:24;;;;;;;4.68;4.28;;;;;;;;;;10093105;28;20054;-70
2022/08/09 22:42:22;;;;;;;5.00;4.50;;;;;;;;;;10083088;28;20062;-70
2022/08/09 22:47:19;;;;;;;5.03;4.53;;;;;;;;;;10089187;28;20046;-70
2022/08/09 22:52:35;;;;;;;7.65;4.85;;;;;;;;;;10086005;28;20051;-70
2022/08/09 22:57:32;;;;;;;5.15;4.30;;;;;;;;;;10095942;28;20098;-70
2022/08/09 23:02:31;;;;;;;5.10;4.60;;;;;;;;;;10088287;28;20063;-69
2022/08/09 23:13:03;;;;;;;4.97;4.40;;;;;;;;;;10105587;28;20189;-68
2022/08/09 23:18:07;;;;;;;4.45;4.05;;;;;;;;;;10087806;28;20051;-67
2022/08/09 23:23:04;;;;;;;5.63;4.35;;;;;;;;;;10098259;28;20079;-67
2022/08/09 23:28:00;;;;;;;7.25;4.65;;;;;;;;;;10095484;28;20074;-70
2022/08/09 23:33:11;;;;;;;5.55;4.68;;;;;;;;;;10096803;28;20142;-70
2022/08/09 23:38:08;;;;;;;5.20;4.70;;;;;;;;;;10095168;28;20521;-69
2022/08/09 23:43:04;;;;;;;9.75;4.82;;;;;;;;;;10102715;28;20137;-69
2022/08/09 23:48:00;;;;;;;4.95;4.45;;;;;;;;;;10088862;28;20362;-69
2022/08/09 23:53:04;;;;;;;7.15;4.15;;;;;;;;;;10085692;28;20137;-70
2022/08/09 23:58:00;;;;;;;5.00;4.50;;;;;;;;;;10088475;28;20501;-70
